Decoded Metar for KPIB (PINE BELT RGNL in MS, USA) (IATA:PIB) | Meteo·Mobile Aviation Weather
aviador You're here:

KPIB Decoded Metar

PINE BELT RGNL in MS, USA
Report Time2019-02-20 00:56:00
UTC Time2019-02-20 01:18:29
Flight Rules lifr LIFR
Wind060° at 06 kt
W.Decomp.*RWY 36: 2.9 kt HW 5.2 kt RCW
W.Rank060° ranks 24
Current wind is above 060° avg. (5.1)
Visibility8047 m
Phenomena:Light Rain
Mist
Clouds:Overcast 004 Hf
Ceiling400 ft
Temp09°C (ISA -5)
Dew Point09°C (100% RH)
AAT6.6°C
QNH1016 hPa
Density Alt-295 ft
Elevation299 ft
Report Wrong Elevation
Raw Report
KPIB 200056Z AUTO 06006KT 5SM -RA BR OVC004 09/09 A3001 RMK AO2
SLP162 P0001 T00940094=

Extra information for KPIB:More info

Metar Taf Metar & Taf Last 4 Metars F.Rules Stats Wind Profile Meteogram Temp Stats Airport Information Weather charts Add Link Nearby VenuesMetar ALERT Operation Metar Decoded Social comments

AIRNAV info for KPIB